Brashear, Texas
Current Conditions -  °F | °C
As of 5:15 AM on Thursday 18 Dec 2014 (Local Time) from KSLR Reporting Station
Overcast Overcast  
Wind Chill: 37°   Ceiling: 500
Heat Index: 41°   Visibility: 10mi
Dew Point: 40°   Wind: 6mph
Humidity: 97%   Direction: 100°E
Pressure: 30.14"   Gusts: NA
Location:  33.12°N, 95.73°W
Report Text: KSLR 181115Z AUTO 10005KT 10SM OVC005 05/05 A3014 RMK AO2 T00500046
Loading
Personal Weather Stations






























Interactive Weather Map New forecast layout! Learn more

10-Day Weather Forecast

Advertisements
Track Severe Weather on mobile